createdAt,value
2023-05-09T00:02:03.352Z,2.58
2023-05-09T00:04:32.790Z,2.53
2023-05-09T00:07:00.653Z,2.42
2023-05-09T00:09:28.551Z,2.49
2023-05-09T00:11:56.411Z,2.43
2023-05-09T00:14:24.924Z,2.35
2023-05-09T00:16:53.738Z,2.26
2023-05-09T00:19:23.064Z,2.20
2023-05-09T00:21:50.929Z,2.14
2023-05-09T00:24:18.900Z,2.09
2023-05-09T00:26:46.950Z,2.05
2023-05-09T00:29:14.738Z,1.97
2023-05-09T00:31:42.804Z,1.92
2023-05-09T00:34:11.048Z,1.88
2023-05-09T00:36:40.468Z,1.89
2023-05-09T00:39:09.604Z,1.84
2023-05-09T00:41:37.381Z,1.81
2023-05-09T00:44:05.883Z,1.77
2023-05-09T00:46:33.954Z,1.71
2023-05-09T00:49:01.979Z,1.65
2023-05-09T00:51:30.434Z,1.65
2023-05-09T00:54:00.056Z,1.61
2023-05-09T00:56:28.024Z,1.58
2023-05-09T00:58:56.644Z,1.51
2023-05-09T01:01:24.584Z,1.54
2023-05-09T01:03:53.216Z,1.47
2023-05-09T01:06:31.473Z,1.50
2023-05-09T01:09:07.355Z,1.43
2023-05-09T01:11:40.479Z,1.40
2023-05-09T01:14:16.787Z,1.34
2023-05-09T01:16:55.145Z,1.31
2023-05-09T01:19:41.836Z,1.20
2023-05-09T01:22:13.631Z,1.20
2023-05-09T01:25:03.128Z,1.14
2023-05-09T01:27:45.228Z,1.04
2023-05-09T01:30:17.518Z,1.07
2023-05-09T01:32:50.844Z,1.04
2023-05-09T01:35:19.825Z,0.99
2023-05-09T01:37:51.917Z,0.91
2023-05-09T01:40:21.869Z,0.96
2023-05-09T01:42:53.570Z,0.92
2023-05-09T01:45:24.879Z,0.88
2023-05-09T01:47:53.143Z,0.85
2023-05-09T01:50:22.767Z,0.83
2023-05-09T01:52:53.675Z,0.82
2023-05-09T01:55:25.564Z,0.82
2023-05-09T01:57:54.949Z,0.78
2023-05-09T02:00:25.423Z,0.80
2023-05-09T02:02:53.682Z,0.73
2023-05-09T02:05:23.240Z,0.70
2023-05-09T02:07:51.275Z,0.65
2023-05-09T02:10:20.855Z,0.63
2023-05-09T02:12:48.778Z,0.59
2023-05-09T02:15:17.028Z,0.56
2023-05-09T02:17:46.568Z,0.56
2023-05-09T02:20:14.412Z,0.51
2023-05-09T02:22:44.474Z,0.51
2023-05-09T02:25:15.598Z,0.49
2023-05-09T02:27:46.282Z,0.46
2023-05-09T02:30:20.590Z,0.45
2023-05-09T02:32:51.573Z,0.39
2023-05-09T02:35:20.218Z,0.44
2023-05-09T02:37:49.535Z,0.44
2023-05-09T02:40:17.772Z,0.37
2023-05-09T02:42:45.528Z,0.29
2023-05-09T02:45:13.794Z,0.44
2023-05-09T02:47:42.284Z,0.47
2023-05-09T02:50:12.439Z,0.47
2023-05-09T02:52:41.108Z,0.49
2023-05-09T02:55:10.149Z,0.51
2023-05-09T02:57:38.034Z,0.54
2023-05-09T03:00:09.365Z,0.51
2023-05-09T03:02:37.467Z,0.62
2023-05-09T03:05:05.995Z,0.68
2023-05-09T03:07:35.224Z,0.73
2023-05-09T03:10:03.103Z,0.78
2023-05-09T03:12:31.223Z,0.83
2023-05-09T03:14:59.064Z,0.94
2023-05-09T03:17:27.610Z,1.03
2023-05-09T03:19:55.830Z,1.22
2023-05-09T03:22:23.589Z,1.28
2023-05-09T03:24:52.710Z,1.42
2023-05-09T03:27:20.815Z,1.57
2023-05-09T03:29:48.533Z,1.68
2023-05-09T03:32:16.484Z,1.81
2023-05-09T03:34:44.255Z,1.96
2023-05-09T03:37:12.132Z,2.24
2023-05-09T03:39:42.395Z,2.50
2023-05-09T03:42:11.696Z,2.78
2023-05-09T03:44:39.499Z,3.10
2023-05-09T03:47:07.607Z,3.31
2023-05-09T03:49:35.642Z,3.59
2023-05-09T03:52:04.288Z,3.77
2023-05-09T03:54:32.250Z,4.13
2023-05-09T03:57:00.177Z,4.30
2023-05-09T03:59:30.480Z,4.60
2023-05-09T04:01:58.411Z,4.83
2023-05-09T04:04:26.679Z,5.12
2023-05-09T04:06:54.587Z,5.34
2023-05-09T04:09:22.499Z,5.60
2023-05-09T04:11:50.450Z,5.73
2023-05-09T04:14:18.244Z,5.95
2023-05-09T04:16:47.452Z,6.10
2023-05-09T04:19:15.370Z,6.22
2023-05-09T04:21:43.168Z,6.33
2023-05-09T04:24:11.025Z,6.47
2023-05-09T04:26:39.073Z,6.62
2023-05-09T04:29:06.947Z,6.71
2023-05-09T04:31:36.038Z,6.88
2023-05-09T04:34:05.277Z,7.05
2023-05-09T04:36:33.954Z,7.27
2023-05-09T04:39:05.213Z,7.42
2023-05-09T04:41:33.096Z,7.70
2023-05-09T04:44:00.975Z,7.89
2023-05-09T04:46:28.925Z,8.21
2023-05-09T04:48:56.785Z,8.49
2023-05-09T04:51:26.089Z,8.63
2023-05-09T04:53:53.927Z,8.91
2023-05-09T04:56:21.905Z,9.14
2023-05-09T04:58:49.820Z,9.29
2023-05-09T05:01:17.834Z,9.43
2023-05-09T05:03:46.123Z,9.60
2023-05-09T05:06:13.988Z,9.82
2023-05-09T05:08:43.233Z,10.05
2023-05-09T05:11:11.044Z,10.27
2023-05-09T05:13:39.016Z,10.46
2023-05-09T05:16:07.073Z,10.67
2023-05-09T05:18:35.031Z,10.78
2023-05-09T05:21:03.004Z,11.02
2023-05-09T05:23:30.794Z,11.19
2023-05-09T05:26:00.255Z,11.36
2023-05-09T05:28:28.067Z,11.59
2023-05-09T05:30:55.980Z,11.77
2023-05-09T05:33:23.853Z,11.94
2023-05-09T05:35:51.712Z,12.03
2023-05-09T05:38:19.748Z,12.30
2023-05-09T05:40:47.754Z,12.51
2023-05-09T05:43:16.870Z,12.45
2023-05-09T05:45:44.636Z,12.55
2023-05-09T05:48:12.548Z,12.78
2023-05-09T05:50:40.321Z,12.88
2023-05-09T05:53:08.050Z,13.06
2023-05-09T05:55:35.961Z,13.08
2023-05-09T05:58:03.759Z,13.32
2023-05-09T06:00:33.019Z,13.57
2023-05-09T06:03:00.890Z,13.81
2023-05-09T06:05:28.685Z,13.87
2023-05-09T06:07:56.547Z,14.11
2023-05-09T06:10:24.423Z,14.28
2023-05-09T06:12:52.375Z,14.45
2023-05-09T06:15:20.171Z,14.70
2023-05-09T06:17:50.028Z,14.87
2023-05-09T06:20:18.155Z,14.90
2023-05-09T06:22:45.972Z,14.95
2023-05-09T06:25:14.196Z,15.03
2023-05-09T06:27:42.853Z,15.17
2023-05-09T06:30:24.502Z,15.44
2023-05-09T06:32:54.593Z,15.56
2023-05-09T06:35:22.710Z,15.65
2023-05-09T06:37:50.503Z,15.36
2023-05-09T06:40:18.575Z,15.41
2023-05-09T06:42:46.562Z,15.54
2023-05-09T06:45:14.667Z,15.61
2023-05-09T06:47:42.743Z,15.45
2023-05-09T06:50:12.497Z,15.65
2023-05-09T06:52:40.352Z,15.39
2023-05-09T06:55:09.908Z,15.87
2023-05-09T06:57:38.038Z,16.18
2023-05-09T07:00:07.287Z,16.44
2023-05-09T07:02:35.177Z,16.96
2023-05-09T07:05:03.183Z,16.83
2023-05-09T07:07:32.401Z,16.98
2023-05-09T07:10:10.669Z,17.11
2023-05-09T07:12:41.978Z,16.81
2023-05-09T07:15:11.203Z,17.15
2023-05-09T07:17:39.272Z,17.51
2023-05-09T07:20:08.787Z,17.84
2023-05-09T07:22:38.549Z,18.16
2023-05-09T07:25:09.074Z,18.50
2023-05-09T07:27:37.154Z,18.90
2023-05-09T07:30:05.597Z,18.63
2023-05-09T07:32:33.554Z,18.94
2023-05-09T07:35:01.414Z,18.82
2023-05-09T07:37:29.221Z,18.86
2023-05-09T07:39:58.348Z,19.13
2023-05-09T07:42:26.430Z,19.42
2023-05-09T07:44:54.586Z,19.44
2023-05-09T07:47:22.602Z,19.42
2023-05-09T07:49:50.478Z,19.33
2023-05-09T07:52:18.688Z,19.54
2023-05-09T07:54:46.546Z,19.70
2023-05-09T07:57:16.113Z,19.54
2023-05-09T07:59:44.192Z,19.43
2023-05-09T08:02:11.983Z,19.34
2023-05-09T08:04:41.492Z,19.25
2023-05-09T08:07:09.611Z,19.66
2023-05-09T08:09:37.595Z,19.65
2023-05-09T08:12:06.085Z,19.68
2023-05-09T08:14:35.616Z,19.40
2023-05-09T08:17:03.464Z,19.81
2023-05-09T08:19:31.229Z,19.89
2023-05-09T08:21:59.096Z,20.16
2023-05-09T08:24:26.838Z,20.33
2023-05-09T08:26:55.848Z,20.83
2023-05-09T08:29:23.696Z,21.12
2023-05-09T08:31:53.023Z,21.36
2023-05-09T08:34:22.305Z,21.78
2023-05-09T08:36:50.202Z,21.92
2023-05-09T08:39:18.192Z,22.56
2023-05-09T08:41:46.481Z,22.83
2023-05-09T08:44:14.670Z,23.03
2023-05-09T08:46:45.421Z,23.10
2023-05-09T08:49:17.132Z,23.14
2023-05-09T08:51:45.976Z,23.26
2023-05-09T08:54:14.387Z,23.14
2023-05-09T08:56:43.143Z,23.02
2023-05-09T08:59:11.255Z,23.31
2023-05-09T09:01:39.437Z,23.26
2023-05-09T09:04:08.948Z,23.83
2023-05-09T09:06:38.968Z,24.04
2023-05-09T09:09:08.557Z,23.91
2023-05-09T09:11:37.450Z,24.02
2023-05-09T09:14:09.769Z,24.32
2023-05-09T09:16:38.757Z,24.66
2023-05-09T09:19:12.551Z,25.36
2023-05-09T09:21:43.788Z,26.00
2023-05-09T09:24:16.128Z,26.30
2023-05-09T09:26:50.006Z,26.37
2023-05-09T09:29:18.945Z,26.24
2023-05-09T09:31:55.705Z,26.04
2023-05-09T09:34:24.740Z,26.51
2023-05-09T09:36:54.226Z,26.74
2023-05-09T09:39:22.445Z,26.58
2023-05-09T09:41:50.442Z,26.59
2023-05-09T09:44:20.545Z,26.96
2023-05-09T09:46:50.629Z,26.99
2023-05-09T09:49:20.248Z,27.53
2023-05-09T09:51:52.145Z,27.82
2023-05-09T09:54:21.892Z,26.99
2023-05-09T09:56:51.808Z,26.39
2023-05-09T09:59:21.272Z,26.38
2023-05-09T10:02:06.641Z,27.06
2023-05-09T10:04:37.036Z,27.39
2023-05-09T10:07:07.398Z,27.79
2023-05-09T10:09:38.139Z,27.34
2023-05-09T10:12:07.308Z,27.91
2023-05-09T10:14:37.729Z,28.08
2023-05-09T10:17:06.880Z,28.35
2023-05-09T10:19:36.867Z,28.81
2023-05-09T10:22:06.866Z,29.23
2023-05-09T10:24:41.959Z,29.39
2023-05-09T10:27:12.797Z,29.54
2023-05-09T10:29:46.093Z,29.21
2023-05-09T10:32:20.545Z,29.12
2023-05-09T10:34:52.479Z,28.71
2023-05-09T10:37:22.451Z,28.60
2023-05-09T10:39:53.908Z,28.69
2023-05-09T10:42:25.256Z,29.02
2023-05-09T10:44:54.697Z,29.15
2023-05-09T10:47:23.371Z,28.64
2023-05-09T10:49:51.338Z,27.64
2023-05-09T10:52:19.212Z,28.50
2023-05-09T10:55:01.650Z,28.02
2023-05-09T10:57:30.679Z,27.48
2023-05-09T11:00:00.156Z,27.57
2023-05-09T11:02:31.008Z,27.67
2023-05-09T11:05:15.938Z,28.05
2023-05-09T11:07:44.418Z,28.10
2023-05-09T11:10:17.751Z,27.99
2023-05-09T11:12:58.019Z,27.52
2023-05-09T11:15:27.619Z,28.02
2023-05-09T11:18:07.928Z,28.87
2023-05-09T11:20:43.520Z,29.33
2023-05-09T11:23:11.941Z,29.26
2023-05-09T11:25:46.536Z,29.26
2023-05-09T11:28:28.893Z,27.74
2023-05-09T11:31:10.855Z,27.25
2023-05-09T11:33:40.224Z,27.07
2023-05-09T11:36:19.931Z,25.86
2023-05-09T11:38:48.693Z,25.10
2023-05-09T11:41:18.164Z,25.20
2023-05-09T11:43:46.417Z,25.78
2023-05-09T11:46:14.207Z,26.36
2023-05-09T11:48:42.940Z,26.90
2023-05-09T11:51:18.354Z,26.62
2023-05-09T11:53:47.026Z,26.69
2023-05-09T11:56:17.508Z,26.02
2023-05-09T11:58:46.756Z,25.78
2023-05-09T12:01:14.620Z,25.77
2023-05-09T12:03:46.038Z,26.48
2023-05-09T12:06:18.266Z,25.60
2023-05-09T12:08:47.397Z,25.67
2023-05-09T12:11:17.280Z,25.66
2023-05-09T12:13:49.665Z,26.27
2023-05-09T12:16:19.256Z,26.58
2023-05-09T12:18:48.211Z,26.01
2023-05-09T12:21:16.530Z,26.46
2023-05-09T12:23:44.628Z,25.95
2023-05-09T12:26:12.569Z,25.58
2023-05-09T12:28:42.682Z,25.06
2023-05-09T12:31:10.731Z,25.26
2023-05-09T12:33:39.899Z,25.30
2023-05-09T12:36:10.316Z,25.52
2023-05-09T12:38:38.904Z,25.64
2023-05-09T12:41:15.472Z,25.48
2023-05-09T12:43:51.729Z,26.42
2023-05-09T12:46:20.363Z,26.17
2023-05-09T12:48:49.516Z,26.82
2023-05-09T12:51:20.387Z,27.25
2023-05-09T12:53:50.101Z,27.53
2023-05-09T12:56:19.603Z,27.17
2023-05-09T12:58:53.010Z,25.65
2023-05-09T13:01:21.990Z,24.86
2023-05-09T13:03:53.500Z,23.99
2023-05-09T13:06:21.676Z,23.45
2023-05-09T13:08:58.908Z,23.72
2023-05-09T13:11:26.903Z,24.42
2023-05-09T13:13:56.730Z,24.46
2023-05-09T13:16:24.883Z,24.41
2023-05-09T13:18:52.692Z,24.78
2023-05-09T13:21:21.036Z,25.20
2023-05-09T13:23:50.201Z,25.27
2023-05-09T13:26:18.121Z,25.79
2023-05-09T13:28:45.943Z,26.03
2023-05-09T13:31:15.338Z,26.32
2023-05-09T13:33:43.199Z,26.56
2023-05-09T13:36:11.153Z,26.43
2023-05-09T13:38:40.979Z,26.41
2023-05-09T13:41:08.931Z,26.29
2023-05-09T13:43:37.562Z,26.36
2023-05-09T13:46:05.461Z,25.84
2023-05-09T13:48:34.627Z,24.56
2023-05-09T13:51:02.476Z,23.65
2023-05-09T13:53:30.407Z,23.52
2023-05-09T13:55:58.433Z,24.05
2023-05-09T13:58:26.252Z,24.15
2023-05-09T14:00:54.038Z,24.21
2023-05-09T14:03:21.915Z,23.75
2023-05-09T14:05:51.854Z,23.92
2023-05-09T14:08:21.308Z,24.65
2023-05-09T14:10:50.078Z,24.72
2023-05-09T14:13:18.215Z,24.38
2023-05-09T14:15:48.501Z,24.69
2023-05-09T14:18:20.057Z,25.39
2023-05-09T14:20:49.120Z,25.82
2023-05-09T14:23:18.466Z,25.96
2023-05-09T14:25:46.319Z,25.50
2023-05-09T14:28:14.604Z,24.60
2023-05-09T14:30:42.952Z,24.88
2023-05-09T14:33:14.516Z,25.77
2023-05-09T14:35:42.391Z,26.49
2023-05-09T14:38:10.352Z,26.63
2023-05-09T14:40:39.522Z,27.02
2023-05-09T14:43:07.431Z,26.29
2023-05-09T14:45:35.506Z,25.47
2023-05-09T14:48:03.969Z,24.39
2023-05-09T14:50:32.066Z,23.92
2023-05-09T14:53:03.832Z,24.02
2023-05-09T14:55:32.504Z,24.04
2023-05-09T14:58:02.559Z,23.92
2023-05-09T15:00:31.020Z,25.08
2023-05-09T15:02:58.999Z,24.79
2023-05-09T15:05:26.891Z,24.29
2023-05-09T15:07:54.805Z,23.66
2023-05-09T15:10:22.902Z,23.25
2023-05-09T15:12:50.872Z,23.28
2023-05-09T15:15:21.658Z,23.72
2023-05-09T15:17:49.593Z,24.21
2023-05-09T15:20:18.662Z,23.60
2023-05-09T15:22:47.676Z,23.77
2023-05-09T15:25:16.820Z,24.01
2023-05-09T15:27:44.868Z,23.79
2023-05-09T15:30:13.992Z,23.63
2023-05-09T15:32:43.576Z,23.16
2023-05-09T15:35:11.487Z,22.69
2023-05-09T15:37:39.549Z,22.98
2023-05-09T15:40:09.247Z,23.13
2023-05-09T15:42:37.655Z,21.94
2023-05-09T15:45:06.519Z,21.61
2023-05-09T15:47:34.330Z,21.62
2023-05-09T15:50:03.551Z,21.50
2023-05-09T15:52:31.918Z,21.07
2023-05-09T15:54:59.898Z,20.90
2023-05-09T15:57:28.033Z,20.84
2023-05-09T15:59:56.117Z,21.30
2023-05-09T16:02:24.261Z,21.39
2023-05-09T16:04:52.496Z,20.94
2023-05-09T16:07:21.948Z,21.16
2023-05-09T16:09:50.015Z,20.80
2023-05-09T16:12:17.974Z,21.20
2023-05-09T16:14:45.985Z,21.15
2023-05-09T16:17:14.023Z,21.04
2023-05-09T16:19:42.444Z,20.67
2023-05-09T16:22:10.369Z,20.56
2023-05-09T16:24:39.478Z,20.13
2023-05-09T16:27:07.503Z,19.64
2023-05-09T16:29:35.280Z,19.49
2023-05-09T16:32:04.222Z,19.09
2023-05-09T16:34:32.953Z,18.58
2023-05-09T16:37:01.407Z,17.82
2023-05-09T16:39:29.683Z,17.32
2023-05-09T16:41:59.693Z,16.98
2023-05-09T16:44:27.603Z,16.72
2023-05-09T16:46:55.346Z,16.34
2023-05-09T16:49:23.187Z,16.22
2023-05-09T16:51:50.952Z,16.18
2023-05-09T16:54:18.755Z,16.15
2023-05-09T16:56:46.818Z,16.09
2023-05-09T16:59:17.360Z,16.04
2023-05-09T17:01:45.151Z,15.95
2023-05-09T17:04:12.989Z,15.80
2023-05-09T17:06:40.810Z,15.67
2023-05-09T17:09:08.702Z,15.50
2023-05-09T17:11:36.691Z,15.55
2023-05-09T17:14:04.792Z,15.56
2023-05-09T17:16:35.300Z,15.52
2023-05-09T17:19:05.283Z,15.41
2023-05-09T17:21:33.240Z,15.35
2023-05-09T17:24:02.013Z,15.25
2023-05-09T17:26:30.670Z,15.26
2023-05-09T17:28:58.449Z,15.22
2023-05-09T17:31:26.539Z,15.06
2023-05-09T17:33:55.956Z,15.00
2023-05-09T17:36:23.829Z,14.93
2023-05-09T17:38:52.270Z,14.82
2023-05-09T17:41:20.377Z,14.73
2023-05-09T17:43:51.920Z,14.61
2023-05-09T17:46:20.022Z,14.38
2023-05-09T17:48:48.291Z,14.19
2023-05-09T17:51:17.906Z,14.08
2023-05-09T17:53:46.809Z,13.91
2023-05-09T17:56:14.710Z,13.81
2023-05-09T17:58:42.482Z,13.73
2023-05-09T18:01:10.765Z,13.62
2023-05-09T18:03:39.363Z,13.59
2023-05-09T18:06:07.511Z,13.53
2023-05-09T18:08:37.093Z,13.42
2023-05-09T18:11:05.616Z,13.32
2023-05-09T18:13:34.381Z,13.27
2023-05-09T18:16:02.798Z,13.22
2023-05-09T18:18:32.355Z,13.16
2023-05-09T18:21:00.393Z,13.02
2023-05-09T18:23:28.404Z,13.00
2023-05-09T18:25:57.660Z,12.89
2023-05-09T18:28:27.457Z,12.79
2023-05-09T18:30:56.887Z,12.74
2023-05-09T18:33:26.328Z,12.69
2023-05-09T18:35:55.045Z,12.56
2023-05-09T18:38:23.831Z,12.54
2023-05-09T18:40:52.290Z,12.46
2023-05-09T18:43:22.462Z,12.42
2023-05-09T18:45:51.892Z,12.37
2023-05-09T18:48:20.117Z,12.29
2023-05-09T18:50:48.893Z,12.20
2023-05-09T18:53:16.760Z,12.13
2023-05-09T18:55:44.711Z,12.04
2023-05-09T18:58:12.564Z,11.98
2023-05-09T19:00:42.860Z,11.88
2023-05-09T19:03:10.713Z,11.85
2023-05-09T19:05:38.656Z,11.76
2023-05-09T19:08:07.058Z,11.73
2023-05-09T19:10:36.197Z,11.61
2023-05-09T19:13:04.180Z,11.55
2023-05-09T19:15:32.148Z,11.49
2023-05-09T19:18:02.039Z,11.46
2023-05-09T19:20:30.376Z,11.38
2023-05-09T19:25:43.740Z,11.26
2023-05-09T19:28:14.585Z,11.20
2023-05-09T19:30:42.581Z,11.26
2023-05-09T19:33:12.083Z,11.21
2023-05-09T19:35:39.907Z,11.13
2023-05-09T19:38:08.796Z,11.12
2023-05-09T19:40:36.665Z,11.09
2023-05-09T19:43:04.747Z,11.04
2023-05-09T19:45:32.624Z,10.99
2023-05-09T19:48:00.672Z,11.00
2023-05-09T19:50:31.066Z,10.96
2023-05-09T19:52:59.418Z,10.83
2023-05-09T19:55:27.455Z,10.89
2023-05-09T19:57:55.298Z,10.88
2023-05-09T20:00:23.205Z,10.83
2023-05-09T20:02:51.147Z,10.83
2023-05-09T20:05:19.121Z,10.80
2023-05-09T20:10:34.252Z,10.78
2023-05-09T20:13:03.951Z,10.75
2023-05-09T20:15:32.232Z,10.71
2023-05-09T20:18:03.568Z,10.71
2023-05-09T20:20:32.691Z,10.71
2023-05-09T20:23:02.278Z,10.67
2023-05-09T20:25:30.556Z,10.65
2023-05-09T20:27:58.826Z,10.61
2023-05-09T20:30:27.242Z,10.54
2023-05-09T20:32:55.250Z,10.55
2023-05-09T20:35:23.232Z,10.55
2023-05-09T20:37:51.232Z,10.59
2023-05-09T20:40:20.780Z,10.51
2023-05-09T20:42:48.596Z,10.41
2023-05-09T20:45:16.578Z,10.27
2023-05-09T20:47:44.511Z,10.29
2023-05-09T20:50:12.549Z,10.21
2023-05-09T20:52:40.344Z,10.26
2023-05-09T20:55:08.813Z,10.22
2023-05-09T20:57:38.031Z,10.24
2023-05-09T21:00:07.666Z,10.16
2023-05-09T21:02:35.840Z,10.17
2023-05-09T21:05:03.829Z,10.23
2023-05-09T21:07:31.691Z,10.08
2023-05-09T21:09:59.722Z,10.27
2023-05-09T21:12:27.858Z,10.21
2023-05-09T21:14:56.953Z,10.22
2023-05-09T21:17:24.888Z,10.18
2023-05-09T21:19:52.697Z,10.09
2023-05-09T21:22:20.575Z,10.09
2023-05-09T21:24:48.492Z,10.18
2023-05-09T21:27:16.282Z,10.12
2023-05-09T21:29:44.054Z,10.12
2023-05-09T21:32:13.242Z,10.06
2023-05-09T21:34:41.100Z,10.09
2023-05-09T21:37:08.955Z,10.02
2023-05-09T21:39:36.862Z,10.00
2023-05-09T21:42:04.963Z,9.99
2023-05-09T21:44:33.160Z,10.01
2023-05-09T21:47:01.952Z,9.96
2023-05-09T21:49:31.811Z,9.96
2023-05-09T21:52:02.143Z,9.93
2023-05-09T21:54:31.712Z,9.90
2023-05-09T21:56:59.569Z,9.88
2023-05-09T21:59:28.219Z,9.92
2023-05-09T22:01:56.112Z,9.91
2023-05-09T22:04:24.008Z,9.82
2023-05-09T22:06:53.276Z,9.71
2023-05-09T22:09:21.218Z,9.77
2023-05-09T22:11:48.991Z,9.70
2023-05-09T22:14:16.977Z,9.60
2023-05-09T22:16:44.804Z,9.63
2023-05-09T22:19:12.728Z,9.67
2023-05-09T22:21:40.723Z,9.69
2023-05-09T22:24:10.035Z,9.61
2023-05-09T22:26:37.914Z,9.49
2023-05-09T22:29:06.001Z,9.51
2023-05-09T22:31:33.956Z,9.45
2023-05-09T22:34:02.063Z,9.47
2023-05-09T22:36:29.967Z,9.40
2023-05-09T22:38:57.912Z,9.46
2023-05-09T22:41:27.550Z,9.49
2023-05-09T22:43:55.463Z,9.49
2023-05-09T22:46:23.457Z,9.50
2023-05-09T22:48:51.324Z,9.47
2023-05-09T22:51:19.294Z,9.48
2023-05-09T22:53:51.871Z,9.41
2023-05-09T22:56:19.749Z,9.35
2023-05-09T22:58:49.719Z,9.35
2023-05-09T23:01:17.551Z,9.37
2023-05-09T23:03:45.667Z,9.37
2023-05-09T23:06:13.471Z,9.43
2023-05-09T23:08:41.428Z,9.34
2023-05-09T23:11:09.306Z,9.23
2023-05-09T23:13:37.125Z,9.13
2023-05-09T23:16:07.155Z,9.16
2023-05-09T23:18:34.959Z,9.15
2023-05-09T23:21:02.809Z,9.05
2023-05-09T23:23:30.602Z,9.04
2023-05-09T23:25:58.517Z,8.98
2023-05-09T23:28:27.345Z,8.87
2023-05-09T23:30:55.600Z,8.82
2023-05-09T23:33:24.768Z,8.81
2023-05-09T23:35:52.582Z,8.79
2023-05-09T23:38:20.760Z,8.92
2023-05-09T23:40:48.630Z,8.86
2023-05-09T23:43:16.445Z,8.88
2023-05-09T23:45:44.533Z,8.85
2023-05-09T23:48:12.521Z,8.73
2023-05-09T23:50:42.592Z,8.68
2023-05-09T23:53:10.783Z,8.69
2023-05-09T23:55:39.318Z,8.64
2023-05-09T23:58:07.164Z,8.61
